sensor_id;sensor_type;location;lat;lon;timestamp;temperature;humidity
29663;DHT22;16578;53.266;7.920;2023-12-14T00:01:11;8.00;85.50
29663;DHT22;16578;53.266;7.920;2023-12-14T00:03:39;8.00;85.40
29663;DHT22;16578;53.266;7.920;2023-12-14T00:06:10;7.90;85.50
29663;DHT22;16578;53.266;7.920;2023-12-14T00:08:35;8.00;85.50
29663;DHT22;16578;53.266;7.920;2023-12-14T00:11:08;8.00;85.50
29663;DHT22;16578;53.266;7.920;2023-12-14T00:13:34;8.00;85.40
29663;DHT22;16578;53.266;7.920;2023-12-14T00:16:00;7.90;85.40
29663;DHT22;16578;53.266;7.920;2023-12-14T00:18:26;7.90;85.40
29663;DHT22;16578;53.266;7.920;2023-12-14T00:20:52;7.90;85.40
29663;DHT22;16578;53.266;7.920;2023-12-14T00:23:19;7.90;85.40
29663;DHT22;16578;53.266;7.920;2023-12-14T00:25:45;7.90;85.60
29663;DHT22;16578;53.266;7.920;2023-12-14T00:28:11;7.90;86.40
29663;DHT22;16578;53.266;7.920;2023-12-14T00:30:36;8.00;85.70
29663;DHT22;16578;53.266;7.920;2023-12-14T00:33:02;8.00;85.60
29663;DHT22;16578;53.266;7.920;2023-12-14T00:35:28;8.00;85.60
29663;DHT22;16578;53.266;7.920;2023-12-14T00:37:53;8.00;85.60
29663;DHT22;16578;53.266;7.920;2023-12-14T00:40:19;8.00;85.60
29663;DHT22;16578;53.266;7.920;2023-12-14T00:42:44;8.00;85.50
29663;DHT22;16578;53.266;7.920;2023-12-14T00:45:10;8.00;85.50
29663;DHT22;16578;53.266;7.920;2023-12-14T00:47:36;8.10;85.60
29663;DHT22;16578;53.266;7.920;2023-12-14T00:50:01;8.10;85.40
29663;DHT22;16578;53.266;7.920;2023-12-14T00:52:27;8.10;85.40
29663;DHT22;16578;53.266;7.920;2023-12-14T00:54:53;8.10;85.40
29663;DHT22;16578;53.266;7.920;2023-12-14T00:57:19;8.10;85.40
29663;DHT22;16578;53.266;7.920;2023-12-14T00:59:44;8.10;85.40
29663;DHT22;16578;53.266;7.920;2023-12-14T01:02:10;8.10;85.30
29663;DHT22;16578;53.266;7.920;2023-12-14T01:04:35;8.10;85.20
29663;DHT22;16578;53.266;7.920;2023-12-14T01:07:02;8.10;85.20
29663;DHT22;16578;53.266;7.920;2023-12-14T01:09:28;8.10;85.20
29663;DHT22;16578;53.266;7.920;2023-12-14T01:11:53;8.10;85.30
29663;DHT22;16578;53.266;7.920;2023-12-14T01:14:19;8.10;85.20
29663;DHT22;16578;53.266;7.920;2023-12-14T01:16:44;8.20;85.40
29663;DHT22;16578;53.266;7.920;2023-12-14T01:19:10;8.10;85.20
29663;DHT22;16578;53.266;7.920;2023-12-14T01:21:35;8.20;85.20
29663;DHT22;16578;53.266;7.920;2023-12-14T01:24:01;8.20;85.10
29663;DHT22;16578;53.266;7.920;2023-12-14T01:26:27;8.20;85.10
29663;DHT22;16578;53.266;7.920;2023-12-14T01:28:53;8.20;85.10
29663;DHT22;16578;53.266;7.920;2023-12-14T01:31:18;8.20;85.10
29663;DHT22;16578;53.266;7.920;2023-12-14T01:33:44;8.20;85.00
29663;DHT22;16578;53.266;7.920;2023-12-14T01:36:22;8.20;85.00
29663;DHT22;16578;53.266;7.920;2023-12-14T01:38:49;8.20;84.90
29663;DHT22;16578;53.266;7.920;2023-12-14T01:41:14;8.10;84.80
29663;DHT22;16578;53.266;7.920;2023-12-14T01:43:40;8.10;84.80
29663;DHT22;16578;53.266;7.920;2023-12-14T01:46:06;8.10;84.80
29663;DHT22;16578;53.266;7.920;2023-12-14T01:48:31;8.10;84.80
29663;DHT22;16578;53.266;7.920;2023-12-14T01:50:57;8.10;84.80
29663;DHT22;16578;53.266;7.920;2023-12-14T01:53:23;8.10;84.80
29663;DHT22;16578;53.266;7.920;2023-12-14T01:55:48;8.10;84.80
29663;DHT22;16578;53.266;7.920;2023-12-14T01:58:14;8.00;84.80
29663;DHT22;16578;53.266;7.920;2023-12-14T02:00:45;8.00;84.80
29663;DHT22;16578;53.266;7.920;2023-12-14T02:03:13;8.00;84.90
29663;DHT22;16578;53.266;7.920;2023-12-14T02:05:42;8.00;85.00
29663;DHT22;16578;53.266;7.920;2023-12-14T02:08:08;8.00;85.10
29663;DHT22;16578;53.266;7.920;2023-12-14T02:10:34;8.00;85.10
29663;DHT22;16578;53.266;7.920;2023-12-14T02:13:04;8.00;85.00
29663;DHT22;16578;53.266;7.920;2023-12-14T02:15:29;8.00;85.00
29663;DHT22;16578;53.266;7.920;2023-12-14T02:17:55;8.00;85.00
29663;DHT22;16578;53.266;7.920;2023-12-14T02:20:21;8.00;85.00
29663;DHT22;16578;53.266;7.920;2023-12-14T02:22:56;8.00;85.00
29663;DHT22;16578;53.266;7.920;2023-12-14T02:25:23;8.00;84.90
29663;DHT22;16578;53.266;7.920;2023-12-14T02:27:49;8.00;85.00
29663;DHT22;16578;53.266;7.920;2023-12-14T02:30:16;8.00;85.10
29663;DHT22;16578;53.266;7.920;2023-12-14T02:32:42;8.00;85.10
29663;DHT22;16578;53.266;7.920;2023-12-14T02:35:07;7.90;85.00
29663;DHT22;16578;53.266;7.920;2023-12-14T02:37:34;7.90;85.10
29663;DHT22;16578;53.266;7.920;2023-12-14T02:40:02;7.90;85.10
29663;DHT22;16578;53.266;7.920;2023-12-14T02:42:29;7.90;85.20
29663;DHT22;16578;53.266;7.920;2023-12-14T02:44:54;7.90;85.30
29663;DHT22;16578;53.266;7.920;2023-12-14T02:47:20;7.90;85.20
29663;DHT22;16578;53.266;7.920;2023-12-14T02:49:45;7.90;85.30
29663;DHT22;16578;53.266;7.920;2023-12-14T02:52:11;7.90;85.30
29663;DHT22;16578;53.266;7.920;2023-12-14T02:54:38;8.00;85.40
29663;DHT22;16578;53.266;7.920;2023-12-14T02:57:04;7.90;85.30
29663;DHT22;16578;53.266;7.920;2023-12-14T02:59:30;7.90;85.30
29663;DHT22;16578;53.266;7.920;2023-12-14T03:01:55;7.90;85.30
29663;DHT22;16578;53.266;7.920;2023-12-14T03:04:21;7.90;85.30
29663;DHT22;16578;53.266;7.920;2023-12-14T03:06:46;7.90;85.40
29663;DHT22;16578;53.266;7.920;2023-12-14T03:09:12;8.00;85.50
29663;DHT22;16578;53.266;7.920;2023-12-14T03:11:38;8.00;85.40
29663;DHT22;16578;53.266;7.920;2023-12-14T03:14:03;8.00;85.40
29663;DHT22;16578;53.266;7.920;2023-12-14T03:16:29;8.00;85.40
29663;DHT22;16578;53.266;7.920;2023-12-14T03:18:54;8.00;85.40
29663;DHT22;16578;53.266;7.920;2023-12-14T03:21:22;8.00;85.40
29663;DHT22;16578;53.266;7.920;2023-12-14T03:23:47;8.00;85.40
29663;DHT22;16578;53.266;7.920;2023-12-14T03:26:13;8.00;85.30
29663;DHT22;16578;53.266;7.920;2023-12-14T03:28:39;8.10;85.30
29663;DHT22;16578;53.266;7.920;2023-12-14T03:31:04;8.10;85.40
29663;DHT22;16578;53.266;7.920;2023-12-14T03:33:30;8.10;85.40
29663;DHT22;16578;53.266;7.920;2023-12-14T03:35:55;8.10;85.40
29663;DHT22;16578;53.266;7.920;2023-12-14T03:38:21;8.10;85.40
29663;DHT22;16578;53.266;7.920;2023-12-14T03:40:47;8.10;85.40
29663;DHT22;16578;53.266;7.920;2023-12-14T03:43:13;8.10;85.30
29663;DHT22;16578;53.266;7.920;2023-12-14T03:45:38;8.10;85.20
29663;DHT22;16578;53.266;7.920;2023-12-14T03:48:04;8.10;85.20
29663;DHT22;16578;53.266;7.920;2023-12-14T03:50:29;8.10;85.20
29663;DHT22;16578;53.266;7.920;2023-12-14T03:52:55;8.10;85.20
29663;DHT22;16578;53.266;7.920;2023-12-14T03:55:21;8.10;85.20
29663;DHT22;16578;53.266;7.920;2023-12-14T03:57:46;8.10;85.10
29663;DHT22;16578;53.266;7.920;2023-12-14T04:00:13;8.10;85.20
29663;DHT22;16578;53.266;7.920;2023-12-14T04:02:39;8.10;85.20
29663;DHT22;16578;53.266;7.920;2023-12-14T04:05:07;8.10;85.20
29663;DHT22;16578;53.266;7.920;2023-12-14T04:07:37;8.10;85.30
29663;DHT22;16578;53.266;7.920;2023-12-14T04:10:09;8.10;85.40
29663;DHT22;16578;53.266;7.920;2023-12-14T04:12:38;8.00;85.40
29663;DHT22;16578;53.266;7.920;2023-12-14T04:15:06;8.10;86.30
29663;DHT22;16578;53.266;7.920;2023-12-14T04:17:32;8.00;85.40
29663;DHT22;16578;53.266;7.920;2023-12-14T04:19:58;8.10;85.50
29663;DHT22;16578;53.266;7.920;2023-12-14T04:22:24;8.10;85.50
29663;DHT22;16578;53.266;7.920;2023-12-14T04:24:50;8.10;85.50
29663;DHT22;16578;53.266;7.920;2023-12-14T04:27:16;8.10;85.40
29663;DHT22;16578;53.266;7.920;2023-12-14T04:29:42;8.10;85.40
29663;DHT22;16578;53.266;7.920;2023-12-14T04:32:08;8.10;85.30
29663;DHT22;16578;53.266;7.920;2023-12-14T04:34:34;8.10;85.20
29663;DHT22;16578;53.266;7.920;2023-12-14T04:37:00;8.10;85.20
29663;DHT22;16578;53.266;7.920;2023-12-14T04:39:26;8.10;85.20
29663;DHT22;16578;53.266;7.920;2023-12-14T04:41:52;8.10;85.30
29663;DHT22;16578;53.266;7.920;2023-12-14T04:44:22;8.10;85.40
29663;DHT22;16578;53.266;7.920;2023-12-14T04:46:48;8.10;85.30
29663;DHT22;16578;53.266;7.920;2023-12-14T04:49:14;8.10;85.30
29663;DHT22;16578;53.266;7.920;2023-12-14T04:51:40;8.10;85.20
29663;DHT22;16578;53.266;7.920;2023-12-14T04:54:05;8.10;85.20
29663;DHT22;16578;53.266;7.920;2023-12-14T04:56:31;8.10;85.20
29663;DHT22;16578;53.266;7.920;2023-12-14T04:58:56;8.00;85.20
29663;DHT22;16578;53.266;7.920;2023-12-14T05:01:22;8.10;85.30
29663;DHT22;16578;53.266;7.920;2023-12-14T05:03:48;8.10;85.30
29663;DHT22;16578;53.266;7.920;2023-12-14T05:06:13;8.00;85.30
29663;DHT22;16578;53.266;7.920;2023-12-14T05:08:39;8.10;85.30
29663;DHT22;16578;53.266;7.920;2023-12-14T05:11:05;8.10;85.20
29663;DHT22;16578;53.266;7.920;2023-12-14T05:13:30;8.00;85.90
29663;DHT22;16578;53.266;7.920;2023-12-14T05:15:56;8.00;85.10
29663;DHT22;16578;53.266;7.920;2023-12-14T05:18:24;8.00;85.10
29663;DHT22;16578;53.266;7.920;2023-12-14T05:20:50;8.00;85.10
29663;DHT22;16578;53.266;7.920;2023-12-14T05:23:16;8.00;85.10
29663;DHT22;16578;53.266;7.920;2023-12-14T05:25:42;8.00;85.10
29663;DHT22;16578;53.266;7.920;2023-12-14T05:28:07;8.00;85.20
29663;DHT22;16578;53.266;7.920;2023-12-14T05:30:33;8.00;85.20
29663;DHT22;16578;53.266;7.920;2023-12-14T05:32:59;8.00;85.20
29663;DHT22;16578;53.266;7.920;2023-12-14T05:35:24;7.90;85.10
29663;DHT22;16578;53.266;7.920;2023-12-14T05:37:50;8.00;85.10
29663;DHT22;16578;53.266;7.920;2023-12-14T05:40:15;7.90;85.00
29663;DHT22;16578;53.266;7.920;2023-12-14T05:42:41;7.90;85.10
29663;DHT22;16578;53.266;7.920;2023-12-14T05:45:07;7.90;85.20
29663;DHT22;16578;53.266;7.920;2023-12-14T05:47:33;7.90;85.20
29663;DHT22;16578;53.266;7.920;2023-12-14T05:50:03;7.90;85.30
29663;DHT22;16578;53.266;7.920;2023-12-14T05:52:29;7.90;85.30
29663;DHT22;16578;53.266;7.920;2023-12-14T05:54:54;7.90;85.30
29663;DHT22;16578;53.266;7.920;2023-12-14T05:57:20;7.90;86.10
29663;DHT22;16578;53.266;7.920;2023-12-14T05:59:45;7.90;85.20
29663;DHT22;16578;53.266;7.920;2023-12-14T06:02:12;7.90;85.10
29663;DHT22;16578;53.266;7.920;2023-12-14T06:04:37;7.90;85.20
29663;DHT22;16578;53.266;7.920;2023-12-14T06:07:03;7.90;85.20
29663;DHT22;16578;53.266;7.920;2023-12-14T06:09:28;7.80;85.10
29663;DHT22;16578;53.266;7.920;2023-12-14T06:12:04;7.90;85.20
29663;DHT22;16578;53.266;7.920;2023-12-14T06:14:30;7.90;85.20
29663;DHT22;16578;53.266;7.920;2023-12-14T06:16:56;7.80;85.20
29663;DHT22;16578;53.266;7.920;2023-12-14T06:19:22;7.90;85.30
29663;DHT22;16578;53.266;7.920;2023-12-14T06:21:48;7.80;85.20
29663;DHT22;16578;53.266;7.920;2023-12-14T06:24:14;7.80;85.20
29663;DHT22;16578;53.266;7.920;2023-12-14T06:26:44;7.80;85.30
29663;DHT22;16578;53.266;7.920;2023-12-14T06:29:10;7.80;85.30
29663;DHT22;16578;53.266;7.920;2023-12-14T06:31:36;7.80;85.30
29663;DHT22;16578;53.266;7.920;2023-12-14T06:34:02;7.80;85.30
29663;DHT22;16578;53.266;7.920;2023-12-14T06:36:33;7.80;85.30
29663;DHT22;16578;53.266;7.920;2023-12-14T06:38:59;7.80;85.30
29663;DHT22;16578;53.266;7.920;2023-12-14T06:41:26;7.80;86.10
29663;DHT22;16578;53.266;7.920;2023-12-14T06:43:52;7.80;85.20
29663;DHT22;16578;53.266;7.920;2023-12-14T06:46:18;7.80;85.40
29663;DHT22;16578;53.266;7.920;2023-12-14T06:48:44;7.80;85.50
29663;DHT22;16578;53.266;7.920;2023-12-14T06:51:10;7.80;85.60
29663;DHT22;16578;53.266;7.920;2023-12-14T06:53:38;7.90;85.60
29663;DHT22;16578;53.266;7.920;2023-12-14T06:56:04;7.80;85.60
29663;DHT22;16578;53.266;7.920;2023-12-14T06:58:30;7.80;85.70
29663;DHT22;16578;53.266;7.920;2023-12-14T07:00:57;7.90;85.80
29663;DHT22;16578;53.266;7.920;2023-12-14T07:03:22;7.90;85.60
29663;DHT22;16578;53.266;7.920;2023-12-14T07:05:48;7.90;85.60
29663;DHT22;16578;53.266;7.920;2023-12-14T07:08:13;7.90;85.60
29663;DHT22;16578;53.266;7.920;2023-12-14T07:10:41;7.90;85.50
29663;DHT22;16578;53.266;7.920;2023-12-14T07:13:07;7.90;85.60
29663;DHT22;16578;53.266;7.920;2023-12-14T07:15:33;7.90;85.70
29663;DHT22;16578;53.266;7.920;2023-12-14T07:17:59;7.90;85.70
29663;DHT22;16578;53.266;7.920;2023-12-14T07:20:24;7.90;85.60
29663;DHT22;16578;53.266;7.920;2023-12-14T07:22:50;7.90;85.60
29663;DHT22;16578;53.266;7.920;2023-12-14T07:25:16;7.90;85.60
29663;DHT22;16578;53.266;7.920;2023-12-14T07:27:41;8.00;85.60
29663;DHT22;16578;53.266;7.920;2023-12-14T07:30:09;8.00;85.60
29663;DHT22;16578;53.266;7.920;2023-12-14T07:32:35;8.00;85.60
29663;DHT22;16578;53.266;7.920;2023-12-14T07:35:00;8.00;85.50
29663;DHT22;16578;53.266;7.920;2023-12-14T07:37:26;8.00;85.50
29663;DHT22;16578;53.266;7.920;2023-12-14T07:39:51;8.00;85.60
29663;DHT22;16578;53.266;7.920;2023-12-14T07:42:17;8.00;85.60
29663;DHT22;16578;53.266;7.920;2023-12-14T07:44:45;8.00;85.70
29663;DHT22;16578;53.266;7.920;2023-12-14T07:47:11;8.00;85.50
29663;DHT22;16578;53.266;7.920;2023-12-14T07:49:37;8.00;85.60
29663;DHT22;16578;53.266;7.920;2023-12-14T07:52:02;8.00;85.60
29663;DHT22;16578;53.266;7.920;2023-12-14T07:54:28;8.00;85.50
29663;DHT22;16578;53.266;7.920;2023-12-14T07:56:54;8.00;85.50
29663;DHT22;16578;53.266;7.920;2023-12-14T07:59:20;8.00;85.50
29663;DHT22;16578;53.266;7.920;2023-12-14T08:01:46;8.00;85.50
29663;DHT22;16578;53.266;7.920;2023-12-14T08:04:12;8.00;85.50
29663;DHT22;16578;53.266;7.920;2023-12-14T08:06:37;8.00;85.40
29663;DHT22;16578;53.266;7.920;2023-12-14T08:09:06;8.00;85.40
29663;DHT22;16578;53.266;7.920;2023-12-14T08:11:33;8.00;85.50
29663;DHT22;16578;53.266;7.920;2023-12-14T08:13:59;8.00;85.40
29663;DHT22;16578;53.266;7.920;2023-12-14T08:16:25;8.00;85.40
29663;DHT22;16578;53.266;7.920;2023-12-14T08:18:51;8.00;85.40
29663;DHT22;16578;53.266;7.920;2023-12-14T08:21:18;8.00;85.30
29663;DHT22;16578;53.266;7.920;2023-12-14T08:23:44;8.00;85.40
29663;DHT22;16578;53.266;7.920;2023-12-14T08:26:09;8.00;85.40
29663;DHT22;16578;53.266;7.920;2023-12-14T08:28:37;8.00;85.30
29663;DHT22;16578;53.266;7.920;2023-12-14T08:31:03;8.10;85.40
29663;DHT22;16578;53.266;7.920;2023-12-14T08:33:29;8.10;85.40
29663;DHT22;16578;53.266;7.920;2023-12-14T08:35:55;8.00;85.40
29663;DHT22;16578;53.266;7.920;2023-12-14T08:38:21;8.10;85.50
29663;DHT22;16578;53.266;7.920;2023-12-14T08:40:47;8.10;85.50
29663;DHT22;16578;53.266;7.920;2023-12-14T08:43:13;8.10;85.50
29663;DHT22;16578;53.266;7.920;2023-12-14T08:45:38;8.10;85.40
29663;DHT22;16578;53.266;7.920;2023-12-14T08:48:04;8.10;85.50
29663;DHT22;16578;53.266;7.920;2023-12-14T08:50:30;8.10;85.40
29663;DHT22;16578;53.266;7.920;2023-12-14T08:52:56;8.10;85.50
29663;DHT22;16578;53.266;7.920;2023-12-14T08:55:24;8.10;85.40
29663;DHT22;16578;53.266;7.920;2023-12-14T08:57:50;8.10;85.40
29663;DHT22;16578;53.266;7.920;2023-12-14T09:00:17;8.10;85.40
29663;DHT22;16578;53.266;7.920;2023-12-14T09:02:44;8.10;85.50
29663;DHT22;16578;53.266;7.920;2023-12-14T09:05:12;8.20;85.60
29663;DHT22;16578;53.266;7.920;2023-12-14T09:07:38;8.20;85.50
29663;DHT22;16578;53.266;7.920;2023-12-14T09:10:04;8.20;85.50
29663;DHT22;16578;53.266;7.920;2023-12-14T09:12:29;8.20;85.50
29663;DHT22;16578;53.266;7.920;2023-12-14T09:14:55;8.20;85.60
29663;DHT22;16578;53.266;7.920;2023-12-14T09:17:21;8.20;85.60
29663;DHT22;16578;53.266;7.920;2023-12-14T09:19:46;8.30;85.60
29663;DHT22;16578;53.266;7.920;2023-12-14T09:22:12;8.30;85.50
29663;DHT22;16578;53.266;7.920;2023-12-14T09:24:38;8.30;85.50
29663;DHT22;16578;53.266;7.920;2023-12-14T09:27:03;8.30;85.40
29663;DHT22;16578;53.266;7.920;2023-12-14T09:29:32;8.30;85.40
29663;DHT22;16578;53.266;7.920;2023-12-14T09:31:58;8.30;85.40
29663;DHT22;16578;53.266;7.920;2023-12-14T09:34:23;8.20;85.40
29663;DHT22;16578;53.266;7.920;2023-12-14T09:36:49;8.30;85.60
29663;DHT22;16578;53.266;7.920;2023-12-14T09:39:15;8.30;85.40
29663;DHT22;16578;53.266;7.920;2023-12-14T09:41:41;8.30;85.50
29663;DHT22;16578;53.266;7.920;2023-12-14T09:44:06;8.30;85.40
29663;DHT22;16578;53.266;7.920;2023-12-14T09:46:36;8.40;85.50
29663;DHT22;16578;53.266;7.920;2023-12-14T09:49:02;8.40;85.50
29663;DHT22;16578;53.266;7.920;2023-12-14T09:51:29;8.40;85.50
29663;DHT22;16578;53.266;7.920;2023-12-14T09:53:55;8.40;85.40
29663;DHT22;16578;53.266;7.920;2023-12-14T09:56:27;8.40;85.40
29663;DHT22;16578;53.266;7.920;2023-12-14T09:58:53;8.40;85.30
29663;DHT22;16578;53.266;7.920;2023-12-14T10:01:26;8.50;85.40
29663;DHT22;16578;53.266;7.920;2023-12-14T10:04:14;8.50;85.40
29663;DHT22;16578;53.266;7.920;2023-12-14T10:06:42;8.50;85.30
29663;DHT22;16578;53.266;7.920;2023-12-14T10:09:08;8.50;85.40
29663;DHT22;16578;53.266;7.920;2023-12-14T10:11:44;8.60;85.40
29663;DHT22;16578;53.266;7.920;2023-12-14T10:14:24;8.50;85.20
29663;DHT22;16578;53.266;7.920;2023-12-14T10:16:51;8.60;85.10
29663;DHT22;16578;53.266;7.920;2023-12-14T10:19:18;8.60;85.10
29663;DHT22;16578;53.266;7.920;2023-12-14T10:21:44;8.60;85.00
29663;DHT22;16578;53.266;7.920;2023-12-14T10:24:11;8.50;84.80
29663;DHT22;16578;53.266;7.920;2023-12-14T10:26:37;8.60;84.90
29663;DHT22;16578;53.266;7.920;2023-12-14T10:29:03;8.60;84.90
29663;DHT22;16578;53.266;7.920;2023-12-14T10:31:31;8.50;84.90
29663;DHT22;16578;53.266;7.920;2023-12-14T10:33:56;8.60;85.00
29663;DHT22;16578;53.266;7.920;2023-12-14T10:36:25;8.60;84.90
29663;DHT22;16578;53.266;7.920;2023-12-14T10:38:57;8.60;85.00
29663;DHT22;16578;53.266;7.920;2023-12-14T10:41:24;8.60;85.00
29663;DHT22;16578;53.266;7.920;2023-12-14T10:43:52;8.60;85.10
29663;DHT22;16578;53.266;7.920;2023-12-14T10:46:19;8.60;85.10
29663;DHT22;16578;53.266;7.920;2023-12-14T10:48:47;8.70;85.20
29663;DHT22;16578;53.266;7.920;2023-12-14T10:51:14;8.70;85.30
29663;DHT22;16578;53.266;7.920;2023-12-14T10:53:41;8.70;85.20
29663;DHT22;16578;53.266;7.920;2023-12-14T10:56:10;8.70;86.00
29663;DHT22;16578;53.266;7.920;2023-12-14T10:58:56;8.70;85.00
29663;DHT22;16578;53.266;7.920;2023-12-14T11:01:23;8.80;84.90
29663;DHT22;16578;53.266;7.920;2023-12-14T11:03:53;8.80;85.10
29663;DHT22;16578;53.266;7.920;2023-12-14T11:06:33;8.80;85.00
29663;DHT22;16578;53.266;7.920;2023-12-14T11:09:05;8.80;84.70
29663;DHT22;16578;53.266;7.920;2023-12-14T11:11:47;8.90;84.80
29663;DHT22;16578;53.266;7.920;2023-12-14T11:14:12;8.80;84.60
29663;DHT22;16578;53.266;7.920;2023-12-14T11:16:39;8.90;84.80
29663;DHT22;16578;53.266;7.920;2023-12-14T11:21:47;8.90;84.70
29663;DHT22;16578;53.266;7.920;2023-12-14T11:24:12;8.90;84.70
29663;DHT22;16578;53.266;7.920;2023-12-14T11:26:39;8.90;84.50
29663;DHT22;16578;53.266;7.920;2023-12-14T11:29:06;8.90;84.50
29663;DHT22;16578;53.266;7.920;2023-12-14T11:31:32;8.90;84.40
29663;DHT22;16578;53.266;7.920;2023-12-14T11:33:59;8.90;84.40
29663;DHT22;16578;53.266;7.920;2023-12-14T11:36:26;9.00;84.40
29663;DHT22;16578;53.266;7.920;2023-12-14T11:38:51;9.00;84.50
29663;DHT22;16578;53.266;7.920;2023-12-14T11:41:21;9.00;84.60
29663;DHT22;16578;53.266;7.920;2023-12-14T11:43:46;9.00;84.70
29663;DHT22;16578;53.266;7.920;2023-12-14T11:46:12;9.00;84.60
29663;DHT22;16578;53.266;7.920;2023-12-14T11:48:39;9.00;84.50
29663;DHT22;16578;53.266;7.920;2023-12-14T11:51:05;9.10;84.60
29663;DHT22;16578;53.266;7.920;2023-12-14T11:53:30;9.10;84.60
29663;DHT22;16578;53.266;7.920;2023-12-14T11:55:59;9.10;84.60
29663;DHT22;16578;53.266;7.920;2023-12-14T11:58:26;9.10;84.80
29663;DHT22;16578;53.266;7.920;2023-12-14T12:00:51;9.20;84.80
29663;DHT22;16578;53.266;7.920;2023-12-14T12:03:19;9.20;84.90
29663;DHT22;16578;53.266;7.920;2023-12-14T12:05:49;9.30;85.00
29663;DHT22;16578;53.266;7.920;2023-12-14T12:08:17;9.30;85.00
29663;DHT22;16578;53.266;7.920;2023-12-14T12:10:45;9.30;84.90
29663;DHT22;16578;53.266;7.920;2023-12-14T12:13:13;9.40;84.80
29663;DHT22;16578;53.266;7.920;2023-12-14T12:15:39;9.40;85.60
29663;DHT22;16578;53.266;7.920;2023-12-14T12:18:06;9.40;84.60
29663;DHT22;16578;53.266;7.920;2023-12-14T12:20:32;9.50;84.60
29663;DHT22;16578;53.266;7.920;2023-12-14T12:22:58;9.50;84.50
29663;DHT22;16578;53.266;7.920;2023-12-14T12:25:24;9.50;84.40
29663;DHT22;16578;53.266;7.920;2023-12-14T12:27:49;9.60;84.40
29663;DHT22;16578;53.266;7.920;2023-12-14T12:30:15;9.60;84.40
29663;DHT22;16578;53.266;7.920;2023-12-14T12:32:41;9.60;84.20
29663;DHT22;16578;53.266;7.920;2023-12-14T12:35:07;9.60;84.10
29663;DHT22;16578;53.266;7.920;2023-12-14T12:37:33;9.60;84.10
29663;DHT22;16578;53.266;7.920;2023-12-14T12:39:59;9.70;84.20
29663;DHT22;16578;53.266;7.920;2023-12-14T12:42:25;9.60;84.10
29663;DHT22;16578;53.266;7.920;2023-12-14T12:44:51;9.70;84.10
29663;DHT22;16578;53.266;7.920;2023-12-14T12:47:17;9.70;84.00
29663;DHT22;16578;53.266;7.920;2023-12-14T12:49:43;9.70;83.80
29663;DHT22;16578;53.266;7.920;2023-12-14T12:52:09;9.70;83.90
29663;DHT22;16578;53.266;7.920;2023-12-14T12:54:35;9.70;83.80
29663;DHT22;16578;53.266;7.920;2023-12-14T12:57:01;9.70;83.70
29663;DHT22;16578;53.266;7.920;2023-12-14T12:59:26;9.70;83.60
29663;DHT22;16578;53.266;7.920;2023-12-14T13:01:53;9.70;83.60
29663;DHT22;16578;53.266;7.920;2023-12-14T13:04:19;9.70;83.50
29663;DHT22;16578;53.266;7.920;2023-12-14T13:06:49;9.70;83.50
29663;DHT22;16578;53.266;7.920;2023-12-14T13:09:16;9.70;83.50
29663;DHT22;16578;53.266;7.920;2023-12-14T13:11:43;9.70;83.50
29663;DHT22;16578;53.266;7.920;2023-12-14T13:14:08;9.70;83.50
29663;DHT22;16578;53.266;7.920;2023-12-14T13:16:35;9.70;83.40
29663;DHT22;16578;53.266;7.920;2023-12-14T13:19:01;9.70;83.50
29663;DHT22;16578;53.266;7.920;2023-12-14T13:21:28;9.70;83.50
29663;DHT22;16578;53.266;7.920;2023-12-14T13:23:54;9.70;83.40
29663;DHT22;16578;53.266;7.920;2023-12-14T13:26:22;9.70;83.50
29663;DHT22;16578;53.266;7.920;2023-12-14T13:28:47;9.70;83.40
29663;DHT22;16578;53.266;7.920;2023-12-14T13:31:13;9.70;83.30
29663;DHT22;16578;53.266;7.920;2023-12-14T13:33:38;9.70;83.30
29663;DHT22;16578;53.266;7.920;2023-12-14T13:36:04;9.70;83.30
29663;DHT22;16578;53.266;7.920;2023-12-14T13:38:30;9.70;83.30
29663;DHT22;16578;53.266;7.920;2023-12-14T13:40:59;9.70;83.40
29663;DHT22;16578;53.266;7.920;2023-12-14T13:43:24;9.60;83.40
29663;DHT22;16578;53.266;7.920;2023-12-14T13:45:50;9.70;83.50
29663;DHT22;16578;53.266;7.920;2023-12-14T13:48:18;9.70;83.50
29663;DHT22;16578;53.266;7.920;2023-12-14T13:50:43;9.70;83.40
29663;DHT22;16578;53.266;7.920;2023-12-14T13:53:10;9.60;83.40
29663;DHT22;16578;53.266;7.920;2023-12-14T13:55:35;9.70;83.40
29663;DHT22;16578;53.266;7.920;2023-12-14T13:58:01;9.60;84.20
29663;DHT22;16578;53.266;7.920;2023-12-14T14:00:27;9.60;83.30
29663;DHT22;16578;53.266;7.920;2023-12-14T14:02:53;9.60;83.30
29663;DHT22;16578;53.266;7.920;2023-12-14T14:05:19;9.60;83.30
29663;DHT22;16578;53.266;7.920;2023-12-14T14:07:45;9.60;83.40
29663;DHT22;16578;53.266;7.920;2023-12-14T14:10:10;9.60;83.50
29663;DHT22;16578;53.266;7.920;2023-12-14T14:12:36;9.60;83.50
29663;DHT22;16578;53.266;7.920;2023-12-14T14:15:02;9.60;83.50
29663;DHT22;16578;53.266;7.920;2023-12-14T14:17:27;9.60;83.40
29663;DHT22;16578;53.266;7.920;2023-12-14T14:19:53;9.60;83.40
29663;DHT22;16578;53.266;7.920;2023-12-14T14:22:19;9.60;83.40
29663;DHT22;16578;53.266;7.920;2023-12-14T14:24:44;9.60;83.40
29663;DHT22;16578;53.266;7.920;2023-12-14T14:27:10;9.60;83.50
29663;DHT22;16578;53.266;7.920;2023-12-14T14:29:35;9.60;83.50
29663;DHT22;16578;53.266;7.920;2023-12-14T14:32:01;9.60;83.60
29663;DHT22;16578;53.266;7.920;2023-12-14T14:34:27;9.60;83.60
29663;DHT22;16578;53.266;7.920;2023-12-14T14:36:52;9.60;83.70
29663;DHT22;16578;53.266;7.920;2023-12-14T14:39:18;9.60;83.70
29663;DHT22;16578;53.266;7.920;2023-12-14T14:41:44;9.60;83.80
29663;DHT22;16578;53.266;7.920;2023-12-14T14:44:10;9.60;83.70
29663;DHT22;16578;53.266;7.920;2023-12-14T14:46:36;9.50;83.70
29663;DHT22;16578;53.266;7.920;2023-12-14T14:49:02;9.60;83.70
29663;DHT22;16578;53.266;7.920;2023-12-14T14:51:27;9.60;83.80
29663;DHT22;16578;53.266;7.920;2023-12-14T14:53:56;9.60;83.80
29663;DHT22;16578;53.266;7.920;2023-12-14T14:56:21;9.60;83.70
29663;DHT22;16578;53.266;7.920;2023-12-14T14:58:47;9.60;83.70
29663;DHT22;16578;53.266;7.920;2023-12-14T15:01:12;9.50;83.70
29663;DHT22;16578;53.266;7.920;2023-12-14T15:03:38;9.60;83.70
29663;DHT22;16578;53.266;7.920;2023-12-14T15:06:04;9.60;83.70
29663;DHT22;16578;53.266;7.920;2023-12-14T15:08:29;9.60;83.80
29663;DHT22;16578;53.266;7.920;2023-12-14T15:10:55;9.60;83.80
29663;DHT22;16578;53.266;7.920;2023-12-14T15:13:21;9.60;83.80
29663;DHT22;16578;53.266;7.920;2023-12-14T15:15:47;9.50;83.70
29663;DHT22;16578;53.266;7.920;2023-12-14T15:18:13;9.60;83.80
29663;DHT22;16578;53.266;7.920;2023-12-14T15:20:39;9.50;83.70
29663;DHT22;16578;53.266;7.920;2023-12-14T15:23:06;9.50;83.70
29663;DHT22;16578;53.266;7.920;2023-12-14T15:25:33;9.50;83.70
29663;DHT22;16578;53.266;7.920;2023-12-14T15:27:59;9.50;83.70
29663;DHT22;16578;53.266;7.920;2023-12-14T15:30:25;9.50;83.80
29663;DHT22;16578;53.266;7.920;2023-12-14T15:32:50;9.50;83.80
29663;DHT22;16578;53.266;7.920;2023-12-14T15:35:16;9.50;83.70
29663;DHT22;16578;53.266;7.920;2023-12-14T15:37:43;9.50;83.80
29663;DHT22;16578;53.266;7.920;2023-12-14T15:40:09;9.50;83.70
29663;DHT22;16578;53.266;7.920;2023-12-14T15:42:34;9.50;83.70